createdAt,value
2019-04-03T00:01:34.340Z,21.57
2019-04-03T00:04:04.659Z,21.10
2019-04-03T00:06:31.760Z,21.43
2019-04-03T00:08:58.381Z,20.33
2019-04-03T00:11:25.035Z,21.57
2019-04-03T00:13:51.549Z,20.80
2019-04-03T00:16:18.313Z,20.63
2019-04-03T00:18:46.777Z,21.33
2019-04-03T00:21:13.497Z,21.57
2019-04-03T00:23:40.136Z,21.50
2019-04-03T00:26:06.681Z,22.03
2019-04-03T00:28:33.508Z,21.13
2019-04-03T00:31:00.069Z,22.50
2019-04-03T00:33:26.891Z,22.93
2019-04-03T00:35:53.911Z,21.63
2019-04-03T00:38:20.494Z,21.50
2019-04-03T00:40:47.562Z,21.40
2019-04-03T00:43:15.813Z,21.60
2019-04-03T00:45:42.315Z,23.17
2019-04-03T00:48:08.880Z,22.00
2019-04-03T00:50:35.401Z,22.07
2019-04-03T00:53:01.980Z,21.83
2019-04-03T00:55:28.593Z,21.27
2019-04-03T00:57:56.441Z,22.17
2019-04-03T01:00:24.696Z,21.40
2019-04-03T01:02:52.264Z,22.23
2019-04-03T01:05:18.880Z,21.10
2019-04-03T01:07:45.438Z,21.63
2019-04-03T01:10:12.165Z,21.93
2019-04-03T01:12:38.704Z,22.53
2019-04-03T01:15:06.039Z,21.57
2019-04-03T01:17:34.172Z,21.20
2019-04-03T01:20:00.820Z,22.13
2019-04-03T01:22:27.284Z,20.73
2019-04-03T01:24:53.808Z,21.23
2019-04-03T01:27:20.259Z,21.57
2019-04-03T01:29:46.788Z,23.17
2019-04-03T01:32:15.409Z,21.60
2019-04-03T01:34:41.800Z,21.00
2019-04-03T01:37:08.351Z,21.70
2019-04-03T01:39:34.893Z,22.00
2019-04-03T01:42:01.458Z,22.33
2019-04-03T01:44:28.000Z,21.97
2019-04-03T01:46:57.329Z,22.40
2019-04-03T01:49:23.104Z,22.37
2019-04-03T01:51:49.616Z,21.87
2019-04-03T01:54:16.166Z,22.50
2019-04-03T01:56:42.787Z,22.63
2019-04-03T01:59:09.353Z,22.00
2019-04-03T02:01:37.904Z,22.60
2019-04-03T02:04:04.324Z,22.33
2019-04-03T02:06:31.247Z,21.23
2019-04-03T02:08:57.907Z,20.97
2019-04-03T02:11:25.129Z,22.23
2019-04-03T02:13:51.873Z,22.20
2019-04-03T02:16:18.500Z,23.20
2019-04-03T02:18:45.156Z,22.13
2019-04-03T02:21:11.687Z,22.40
2019-04-03T02:23:38.246Z,22.90
2019-04-03T02:26:04.768Z,20.97
2019-04-03T02:28:32.650Z,23.47
2019-04-03T02:30:59.946Z,22.30
2019-04-03T02:33:29.047Z,21.93
2019-04-03T02:35:55.460Z,22.10
2019-04-03T02:38:23.411Z,22.77
2019-04-03T02:40:50.385Z,23.00
2019-04-03T02:43:16.906Z,22.40
2019-04-03T02:45:44.343Z,22.50
2019-04-03T02:48:11.081Z,22.87
2019-04-03T02:50:38.043Z,21.83
2019-04-03T02:53:05.477Z,21.90
2019-04-03T02:55:32.313Z,21.73
2019-04-03T02:57:58.946Z,22.77
2019-04-03T03:00:25.591Z,22.80
2019-04-03T03:02:52.144Z,22.13
2019-04-03T03:05:19.390Z,21.40
2019-04-03T03:07:46.203Z,22.60
2019-04-03T03:10:13.075Z,21.93
2019-04-03T03:12:39.893Z,20.63
2019-04-03T03:15:11.171Z,21.30
2019-04-03T03:17:36.787Z,22.57
2019-04-03T03:20:07.710Z,23.73
2019-04-03T03:22:36.089Z,22.17
2019-04-03T03:25:04.164Z,22.70
2019-04-03T03:27:30.770Z,21.40
2019-04-03T03:29:59.737Z,21.37
2019-04-03T03:32:33.427Z,20.57
2019-04-03T03:35:07.577Z,21.40
2019-04-03T03:37:23.644Z,23.03
2019-04-03T03:39:53.745Z,21.20
2019-04-03T03:42:20.759Z,21.40
2019-04-03T03:44:47.902Z,20.00
2019-04-03T03:47:15.326Z,21.17
2019-04-03T03:49:43.114Z,19.70
2019-04-03T03:52:10.224Z,21.10
2019-04-03T03:54:37.874Z,19.93
2019-04-03T03:57:06.633Z,19.83
2019-04-03T03:59:33.247Z,21.03
2019-04-03T04:02:03.247Z,20.57
2019-04-03T04:04:28.468Z,20.80
2019-04-03T04:06:55.376Z,20.77
2019-04-03T04:09:22.388Z,20.00
2019-04-03T04:11:50.245Z,21.23
2019-04-03T04:14:21.140Z,21.63
2019-04-03T04:16:45.671Z,22.07
2019-04-03T04:19:12.564Z,22.30
2019-04-03T04:21:43.913Z,21.80
2019-04-03T04:24:10.382Z,20.87
2019-04-03T04:26:36.835Z,20.43
2019-04-03T04:29:05.367Z,20.50
2019-04-03T04:31:32.129Z,21.33
2019-04-03T04:34:00.552Z,20.47
2019-04-03T04:36:27.332Z,20.77
2019-04-03T04:38:54.036Z,21.90
2019-04-03T04:41:20.556Z,21.57
2019-04-03T04:43:47.079Z,21.10
2019-04-03T04:46:14.049Z,20.43
2019-04-03T04:48:40.563Z,21.40
2019-04-03T04:51:07.183Z,21.00
2019-04-03T04:53:33.664Z,19.00
2019-04-03T04:56:00.907Z,21.00
2019-04-03T04:58:28.437Z,19.20
2019-04-03T05:00:55.095Z,21.70
2019-04-03T05:03:22.309Z,21.57
2019-04-03T05:05:48.971Z,21.80
2019-04-03T05:08:15.790Z,20.53
2019-04-03T05:10:42.360Z,21.70
2019-04-03T05:13:08.976Z,21.17
2019-04-03T05:15:35.531Z,23.20
2019-04-03T05:18:02.568Z,23.63
2019-04-03T05:20:29.114Z,23.30
2019-04-03T05:22:57.753Z,24.10
2019-04-03T05:25:24.371Z,24.80
2019-04-03T05:27:52.119Z,26.20
2019-04-03T05:30:29.161Z,26.37
2019-04-03T05:32:56.428Z,24.50
2019-04-03T05:35:23.091Z,25.67
2019-04-03T05:37:50.936Z,24.77
2019-04-03T05:40:17.977Z,25.50
2019-04-03T05:42:44.550Z,24.20
2019-04-03T05:45:11.163Z,23.57
2019-04-03T05:47:39.249Z,23.03
2019-04-03T05:50:06.145Z,24.00
2019-04-03T05:52:34.607Z,22.23
2019-04-03T05:55:01.529Z,25.03
2019-04-03T05:57:29.147Z,23.33
2019-04-03T06:00:00.843Z,23.00
2019-04-03T06:02:24.601Z,24.30
2019-04-03T06:04:51.279Z,22.20
2019-04-03T06:07:18.863Z,22.40
2019-04-03T06:09:45.509Z,23.60
2019-04-03T06:12:14.223Z,23.67
2019-04-03T06:14:40.501Z,23.20
2019-04-03T06:17:06.956Z,22.07
2019-04-03T06:19:35.466Z,23.20
2019-04-03T06:22:01.974Z,25.17
2019-04-03T06:24:28.593Z,23.70
2019-04-03T06:26:55.014Z,23.10
2019-04-03T06:29:21.565Z,22.70
2019-04-03T06:31:48.085Z,23.17
2019-04-03T06:34:14.688Z,22.50
2019-04-03T06:36:41.541Z,21.80
2019-04-03T06:39:08.643Z,22.70
2019-04-03T06:41:35.883Z,22.80
2019-04-03T06:44:02.501Z,22.03
2019-04-03T06:46:29.880Z,24.00
2019-04-03T06:48:57.283Z,24.33
2019-04-03T06:51:23.920Z,22.50
2019-04-03T06:53:52.193Z,22.47
2019-04-03T06:56:19.818Z,22.93
2019-04-03T06:58:48.159Z,22.33
2019-04-03T07:01:14.809Z,22.07
2019-04-03T07:03:41.473Z,22.83
2019-04-03T07:06:08.000Z,23.00
2019-04-03T07:08:36.132Z,22.23
2019-04-03T07:11:02.990Z,22.20
2019-04-03T07:13:30.125Z,23.70
2019-04-03T07:15:57.585Z,22.97
2019-04-03T07:18:25.247Z,22.60
2019-04-03T07:20:52.596Z,22.57
2019-04-03T07:23:19.496Z,22.77
2019-04-03T07:25:46.153Z,23.20
2019-04-03T07:28:12.942Z,22.97
2019-04-03T07:30:40.548Z,22.07
2019-04-03T07:33:07.403Z,22.57
2019-04-03T07:35:34.058Z,22.47
2019-04-03T07:38:00.592Z,22.93
2019-04-03T07:40:27.158Z,21.90
2019-04-03T07:42:55.722Z,22.80
2019-04-03T07:45:22.040Z,22.67
2019-04-03T07:47:48.811Z,23.70
2019-04-03T07:50:15.920Z,23.83
2019-04-03T07:52:42.448Z,23.23
2019-04-03T07:55:09.488Z,23.80
2019-04-03T07:57:36.996Z,23.33
2019-04-03T08:00:08.144Z,22.20
2019-04-03T08:02:34.701Z,22.70
2019-04-03T08:05:01.385Z,22.83
2019-04-03T08:07:27.967Z,22.80
2019-04-03T08:09:56.988Z,21.90
2019-04-03T08:12:22.958Z,23.13
2019-04-03T08:14:49.614Z,23.33
2019-04-03T08:17:18.096Z,22.63
2019-04-03T08:19:45.904Z,22.17
2019-04-03T08:22:12.622Z,23.40
2019-04-03T08:24:40.141Z,22.57
2019-04-03T08:27:08.524Z,22.87
2019-04-03T08:29:37.966Z,22.30
2019-04-03T08:32:03.753Z,23.00
2019-04-03T08:34:31.700Z,22.90
2019-04-03T08:37:01.549Z,21.60
2019-04-03T08:39:27.940Z,24.00
2019-04-03T08:41:56.086Z,23.10
2019-04-03T08:44:23.035Z,24.20
2019-04-03T08:46:49.813Z,22.67
2019-04-03T08:49:16.440Z,23.40
2019-04-03T08:51:43.325Z,24.53
2019-04-03T08:54:11.114Z,22.80
2019-04-03T08:56:38.367Z,24.37
2019-04-03T08:59:05.462Z,23.23
2019-04-03T09:01:32.438Z,23.47
2019-04-03T09:03:59.199Z,22.87
2019-04-03T09:06:25.975Z,21.80
2019-04-03T09:08:52.570Z,22.57
2019-04-03T09:11:19.206Z,22.37
2019-04-03T09:13:46.005Z,21.53
2019-04-03T09:16:12.610Z,22.40
2019-04-03T09:18:39.236Z,22.47
2019-04-03T09:21:06.027Z,21.20
2019-04-03T09:23:32.916Z,21.70
2019-04-03T09:26:02.435Z,22.50
2019-04-03T09:28:29.649Z,22.90
2019-04-03T09:30:56.605Z,22.23
2019-04-03T09:33:25.524Z,22.60
2019-04-03T09:35:52.102Z,22.50
2019-04-03T09:38:20.623Z,21.70
2019-04-03T09:40:48.298Z,21.93
2019-04-03T09:43:16.432Z,20.40
2019-04-03T09:45:43.168Z,21.10
2019-04-03T09:48:12.280Z,20.67
2019-04-03T09:50:38.440Z,20.50
2019-04-03T09:53:05.213Z,19.57
2019-04-03T09:55:35.879Z,20.13
2019-04-03T09:58:00.955Z,20.27
2019-04-03T10:00:28.713Z,19.90
2019-04-03T10:02:55.572Z,19.40
2019-04-03T10:05:22.103Z,18.73
2019-04-03T10:07:48.679Z,19.43
2019-04-03T10:10:16.531Z,18.10
2019-04-03T10:12:47.303Z,17.73
2019-04-03T10:15:12.487Z,18.40
2019-04-03T10:17:39.630Z,17.53
2019-04-03T10:20:07.763Z,16.97
2019-04-03T10:22:34.196Z,17.30
2019-04-03T10:25:04.741Z,16.73
2019-04-03T10:27:29.080Z,15.77
2019-04-03T10:29:56.470Z,14.33
2019-04-03T10:32:23.513Z,16.03
2019-04-03T10:34:51.551Z,14.43
2019-04-03T10:37:18.068Z,17.00
2019-04-03T10:39:44.978Z,14.80
2019-04-03T10:42:11.560Z,17.03
2019-04-03T10:44:38.231Z,20.57
2019-04-03T10:47:04.843Z,18.90
2019-04-03T10:49:32.522Z,19.63
2019-04-03T10:51:59.836Z,19.00
2019-04-03T10:54:27.214Z,18.80
2019-04-03T10:56:53.826Z,20.87
2019-04-03T10:59:20.467Z,21.33
2019-04-03T11:01:46.987Z,19.17
2019-04-03T11:04:13.554Z,18.07
2019-04-03T11:06:40.184Z,18.00
2019-04-03T11:09:07.676Z,18.47
2019-04-03T11:11:36.524Z,19.30
2019-04-03T11:14:04.778Z,18.40
2019-04-03T11:16:31.444Z,16.90
2019-04-03T11:19:02.717Z,17.93
2019-04-03T11:21:26.564Z,18.33
2019-04-03T11:23:53.074Z,17.93
2019-04-03T11:26:23.144Z,13.70
2019-04-03T11:28:48.364Z,12.50
2019-04-03T11:31:24.997Z,12.83
2019-04-03T11:33:45.913Z,13.10
2019-04-03T11:36:12.210Z,12.07
2019-04-03T11:38:39.209Z,13.23
2019-04-03T11:41:12.847Z,17.47
2019-04-03T11:43:35.173Z,18.40
2019-04-03T11:46:02.774Z,16.30
2019-04-03T11:48:29.547Z,16.33
2019-04-03T11:50:56.988Z,15.97
2019-04-03T11:53:24.013Z,16.90
2019-04-03T11:55:50.837Z,16.87
2019-04-03T11:58:18.344Z,15.73
2019-04-03T12:00:48.155Z,16.50
2019-04-03T12:03:14.901Z,17.70
2019-04-03T12:05:41.643Z,16.60
2019-04-03T12:08:08.560Z,16.00
2019-04-03T12:10:35.631Z,16.63
2019-04-03T12:13:04.272Z,13.90
2019-04-03T12:15:33.817Z,13.67
2019-04-03T12:18:01.396Z,16.50
2019-04-03T12:20:28.382Z,15.43
2019-04-03T12:22:55.720Z,14.33
2019-04-03T12:25:22.654Z,16.17
2019-04-03T12:27:49.535Z,14.67
2019-04-03T12:30:17.355Z,13.07
2019-04-03T12:32:48.601Z,13.70
2019-04-03T12:35:12.998Z,14.00
2019-04-03T12:37:39.542Z,12.67
2019-04-03T12:40:07.680Z,12.50
2019-04-03T12:42:34.228Z,13.60
2019-04-03T12:45:00.748Z,13.20
2019-04-03T12:47:28.448Z,12.07
2019-04-03T12:49:56.635Z,14.10
2019-04-03T12:52:24.237Z,15.40
2019-04-03T12:54:52.859Z,14.93
2019-04-03T12:57:19.265Z,15.40
2019-04-03T12:59:47.618Z,15.70
2019-04-03T13:02:14.254Z,15.33
2019-04-03T13:04:40.788Z,15.00
2019-04-03T13:07:07.465Z,15.57
2019-04-03T13:09:34.111Z,15.00
2019-04-03T13:12:00.640Z,16.20
2019-04-03T13:14:28.199Z,17.17
2019-04-03T13:16:54.902Z,15.30
2019-04-03T13:19:22.431Z,15.53
2019-04-03T13:21:49.893Z,16.23
2019-04-03T13:24:17.570Z,17.00
2019-04-03T13:26:44.164Z,16.70
2019-04-03T13:29:10.821Z,16.33
2019-04-03T13:31:37.483Z,16.60
2019-04-03T13:34:04.422Z,15.87
2019-04-03T13:36:31.069Z,16.20
2019-04-03T13:39:00.295Z,17.33
2019-04-03T13:41:25.941Z,15.90
2019-04-03T13:43:53.897Z,16.57
2019-04-03T13:46:20.927Z,15.93
2019-04-03T13:48:47.591Z,17.00
2019-04-03T13:51:14.195Z,16.40
2019-04-03T13:53:40.962Z,15.50
2019-04-03T13:56:10.570Z,14.73
2019-04-03T13:58:35.835Z,14.60
2019-04-03T14:01:07.395Z,14.90
2019-04-03T14:03:32.002Z,14.63
2019-04-03T14:05:58.559Z,15.80
2019-04-03T14:08:25.567Z,15.63
2019-04-03T14:10:52.339Z,14.43
2019-04-03T14:13:19.460Z,14.00
2019-04-03T14:15:47.119Z,14.73
2019-04-03T14:18:13.641Z,14.53
2019-04-03T14:20:40.363Z,13.17
2019-04-03T14:23:07.035Z,15.03
2019-04-03T14:25:37.147Z,14.87
2019-04-03T14:28:03.371Z,16.10
2019-04-03T14:30:30.520Z,14.60
2019-04-03T14:32:57.552Z,15.60
2019-04-03T14:35:45.942Z,15.87
2019-04-03T14:37:53.200Z,17.40
2019-04-03T14:40:20.566Z,16.80
2019-04-03T14:42:47.673Z,16.23
2019-04-03T14:45:15.210Z,17.77
2019-04-03T14:47:42.791Z,17.20
2019-04-03T14:50:10.311Z,17.37
2019-04-03T14:52:37.239Z,18.17
2019-04-03T14:55:16.436Z,18.57
2019-04-03T14:57:34.829Z,18.13
2019-04-03T15:00:05.072Z,18.60
2019-04-03T15:02:30.077Z,16.70
2019-04-03T15:04:56.630Z,20.27
2019-04-03T15:07:23.214Z,18.60
2019-04-03T15:09:50.026Z,18.90
2019-04-03T15:12:16.833Z,20.63
2019-04-03T15:14:43.380Z,18.73
2019-04-03T15:17:10.290Z,19.53
2019-04-03T15:19:36.934Z,18.83
2019-04-03T15:22:03.493Z,19.03
2019-04-03T15:24:30.254Z,19.53
2019-04-03T15:26:56.766Z,20.30
2019-04-03T15:29:23.301Z,20.17
2019-04-03T15:31:50.258Z,21.30
2019-04-03T15:34:17.219Z,20.27
2019-04-03T15:36:43.770Z,20.23
2019-04-03T15:39:16.409Z,19.50
2019-04-03T15:41:42.478Z,20.80
2019-04-03T15:44:09.670Z,22.07
2019-04-03T15:46:36.328Z,23.30
2019-04-03T15:49:03.471Z,25.83
2019-04-03T15:51:30.151Z,29.80
2019-04-03T15:53:57.064Z,31.83
2019-04-03T15:56:25.137Z,30.57
2019-04-03T15:58:52.094Z,31.97
2019-04-03T16:01:18.632Z,33.70
2019-04-03T16:03:45.137Z,31.10
2019-04-03T16:06:12.031Z,33.10
2019-04-03T16:08:39.065Z,30.70
2019-04-03T16:11:05.959Z,28.30
2019-04-03T16:13:32.829Z,30.90
2019-04-03T16:16:00.805Z,30.20
2019-04-03T16:18:27.673Z,30.27
2019-04-03T16:20:54.243Z,28.50
2019-04-03T16:23:20.782Z,28.80
2019-04-03T16:25:49.299Z,26.00
2019-04-03T16:28:16.315Z,27.13
2019-04-03T16:30:43.014Z,26.80
2019-04-03T16:33:19.951Z,30.50
2019-04-03T16:35:38.219Z,27.43
2019-04-03T16:38:04.970Z,30.33
2019-04-03T16:40:32.460Z,30.83
2019-04-03T16:42:59.122Z,29.97
2019-04-03T16:45:25.609Z,30.17
2019-04-03T16:47:52.205Z,29.40
2019-04-03T16:50:18.796Z,31.73
2019-04-03T16:52:47.204Z,28.23
2019-04-03T16:55:15.872Z,32.27
2019-04-03T16:57:42.747Z,30.53
2019-04-03T17:00:11.145Z,31.33
2019-04-03T17:02:38.055Z,31.77
2019-04-03T17:05:06.848Z,30.30
2019-04-03T17:07:33.629Z,31.27
2019-04-03T17:10:00.720Z,30.07
2019-04-03T17:12:29.028Z,31.20
2019-04-03T17:14:56.475Z,29.43
2019-04-03T17:17:23.264Z,33.27
2019-04-03T17:19:50.949Z,29.83
2019-04-03T17:22:18.762Z,31.00
2019-04-03T17:24:48.934Z,31.73
2019-04-03T17:27:14.260Z,32.70
2019-04-03T17:29:40.908Z,30.03
2019-04-03T17:32:08.760Z,32.00
2019-04-03T17:34:41.676Z,32.87
2019-04-03T17:37:06.364Z,32.23
2019-04-03T17:39:33.945Z,30.33
2019-04-03T17:42:01.264Z,32.83
2019-04-03T17:44:27.805Z,32.90
2019-04-03T17:46:54.311Z,29.90
2019-04-03T17:49:20.999Z,33.07
2019-04-03T17:51:47.517Z,33.10
2019-04-03T17:54:14.102Z,35.10
2019-04-03T17:56:41.010Z,34.33
2019-04-03T17:59:09.072Z,36.27
2019-04-03T18:01:36.301Z,36.47
2019-04-03T18:04:03.310Z,36.53
2019-04-03T18:06:29.876Z,38.30
2019-04-03T18:08:56.416Z,39.93
2019-04-03T18:11:22.974Z,41.57
2019-04-03T18:13:50.330Z,42.00
2019-04-03T18:16:16.806Z,42.57
2019-04-03T18:18:43.501Z,45.13
2019-04-03T18:21:12.915Z,46.47
2019-04-03T18:23:39.277Z,46.70
2019-04-03T18:26:06.759Z,45.00
2019-04-03T18:28:35.500Z,46.70
2019-04-03T18:31:01.745Z,46.73
2019-04-03T18:33:28.344Z,46.60
2019-04-03T18:35:56.801Z,43.83
2019-04-03T18:38:23.361Z,41.73
2019-04-03T18:40:49.995Z,40.53
2019-04-03T18:43:16.595Z,40.13
2019-04-03T18:45:43.314Z,40.30
2019-04-03T18:48:09.856Z,39.43
2019-04-03T18:50:36.528Z,38.73
2019-04-03T18:53:03.394Z,39.90
2019-04-03T18:55:29.957Z,39.00
2019-04-03T18:57:56.485Z,40.83
2019-04-03T19:00:23.051Z,41.83
2019-04-03T19:02:49.593Z,40.97
2019-04-03T19:05:16.686Z,40.70
2019-04-03T19:07:45.898Z,40.27
2019-04-03T19:10:11.968Z,42.30
2019-04-03T19:12:38.857Z,42.60
2019-04-03T19:15:06.410Z,44.77
2019-04-03T19:17:33.131Z,43.70
2019-04-03T19:20:10.164Z,41.47
2019-04-03T19:22:29.293Z,42.57
2019-04-03T19:24:58.480Z,43.23
2019-04-03T19:27:24.411Z,42.80
2019-04-03T19:29:51.067Z,40.03
2019-04-03T19:32:17.914Z,41.97
2019-04-03T19:34:44.422Z,43.17
2019-04-03T19:37:11.280Z,42.03
2019-04-03T19:39:38.213Z,41.70
2019-04-03T19:42:04.886Z,42.73
2019-04-03T19:44:31.484Z,41.40
2019-04-03T19:46:57.988Z,41.83
2019-04-03T19:49:27.456Z,44.20
2019-04-03T19:51:53.112Z,44.27
2019-04-03T19:54:19.783Z,42.77
2019-04-03T19:56:47.651Z,41.60
2019-04-03T19:59:15.262Z,43.10
2019-04-03T20:01:43.544Z,40.50
2019-04-03T20:04:10.054Z,41.70
2019-04-03T20:06:36.736Z,42.93
2019-04-03T20:09:07.725Z,44.17
2019-04-03T20:11:35.919Z,46.27
2019-04-03T20:14:02.834Z,43.40
2019-04-03T20:16:29.564Z,43.90
2019-04-03T20:18:57.935Z,43.97
2019-04-03T20:21:25.291Z,44.10
2019-04-03T20:23:51.970Z,42.00
2019-04-03T20:26:18.651Z,45.63
2019-04-03T20:28:45.195Z,44.50
2019-04-03T20:31:11.797Z,45.80
2019-04-03T20:33:42.106Z,47.00
2019-04-03T20:36:07.959Z,48.83
2019-04-03T20:38:34.621Z,50.00
2019-04-03T20:41:03.206Z,50.97
2019-04-03T20:43:30.470Z,50.60
2019-04-03T20:45:56.998Z,48.90
2019-04-03T20:48:23.586Z,47.67
2019-04-03T20:50:50.257Z,48.97
2019-04-03T20:53:17.726Z,46.57
2019-04-03T20:55:44.416Z,48.53
2019-04-03T20:58:11.072Z,49.13
2019-04-03T21:00:37.785Z,47.60
2019-04-03T21:03:04.383Z,45.70
2019-04-03T21:05:30.932Z,46.90
2019-04-03T21:07:57.463Z,47.17
2019-04-03T21:10:24.028Z,46.23
2019-04-03T21:12:50.704Z,45.50
2019-04-03T21:15:17.272Z,47.87
2019-04-03T21:17:45.538Z,47.07
2019-04-03T21:20:12.278Z,46.07
2019-04-03T21:22:39.007Z,46.67
2019-04-03T21:25:06.341Z,48.73
2019-04-03T21:27:33.956Z,46.30
2019-04-03T21:30:02.826Z,47.80
2019-04-03T21:32:29.467Z,47.43
2019-04-03T21:34:56.129Z,45.13
2019-04-03T21:37:22.786Z,45.60
2019-04-03T21:39:49.431Z,47.07
2019-04-03T21:42:16.142Z,45.63
2019-04-03T21:44:42.880Z,44.40
2019-04-03T21:47:11.476Z,41.20
2019-04-03T21:49:37.756Z,44.40
2019-04-03T21:52:05.284Z,41.30
2019-04-03T21:54:32.731Z,42.50
2019-04-03T21:57:00.609Z,42.10
2019-04-03T21:59:28.153Z,42.10
2019-04-03T22:01:56.330Z,39.10
2019-04-03T22:04:23.488Z,36.80
2019-04-03T22:06:51.040Z,38.37
2019-04-03T22:09:18.684Z,37.70
2019-04-03T22:11:47.360Z,39.10
2019-04-03T22:14:14.443Z,39.53
2019-04-03T22:16:40.992Z,37.10
2019-04-03T22:19:09.217Z,37.23
2019-04-03T22:21:36.590Z,37.93
2019-04-03T22:24:06.588Z,36.87
2019-04-03T22:26:33.249Z,38.10
2019-04-03T22:28:59.809Z,35.30
2019-04-03T22:31:26.535Z,35.60
2019-04-03T22:33:53.092Z,36.37
2019-04-03T22:36:19.752Z,34.87
2019-04-03T22:38:46.287Z,34.80
2019-04-03T22:41:12.899Z,35.30
2019-04-03T22:43:39.555Z,32.60
2019-04-03T22:46:06.063Z,34.30
2019-04-03T22:48:32.735Z,35.17
2019-04-03T22:50:59.157Z,34.33
2019-04-03T22:53:25.698Z,35.23
2019-04-03T22:55:52.247Z,33.43
2019-04-03T22:58:19.001Z,33.43
2019-04-03T23:00:47.211Z,33.30
2019-04-03T23:03:13.962Z,32.47
2019-04-03T23:05:40.496Z,32.13
2019-04-03T23:08:06.955Z,31.27
2019-04-03T23:10:33.486Z,32.47
2019-04-03T23:13:00.275Z,31.83
2019-04-03T23:15:26.803Z,31.40
2019-04-03T23:17:53.464Z,30.47
2019-04-03T23:20:21.963Z,30.03
2019-04-03T23:22:50.154Z,32.07
2019-04-03T23:25:16.877Z,30.37
2019-04-03T23:27:43.847Z,30.63
2019-04-03T23:30:10.949Z,30.80
2019-04-03T23:32:37.691Z,30.63
2019-04-03T23:35:04.908Z,29.30
2019-04-03T23:37:31.378Z,29.37
2019-04-03T23:39:59.151Z,29.83
2019-04-03T23:42:26.445Z,30.03
2019-04-03T23:44:53.091Z,30.07
2019-04-03T23:47:19.635Z,28.20
2019-04-03T23:49:46.188Z,29.27
2019-04-03T23:52:12.826Z,29.90
2019-04-03T23:54:39.483Z,27.57
2019-04-03T23:57:06.106Z,29.03
2019-04-03T23:59:32.661Z,28.20
